sensor_id;sensor_type;location;lat;lon;timestamp;pressure;altitude;pressure_sealevel;temperature;humidity
40940;BME280;26666;50.156;7.700;2022-08-25T00:02:48;100574.19;;;19.97;55.89
40940;BME280;26666;50.156;7.700;2022-08-25T00:07:56;100582.53;;;19.87;56.85
40940;BME280;26666;50.156;7.700;2022-08-25T00:12:58;100579.09;;;19.94;56.46
40940;BME280;26666;50.156;7.700;2022-08-25T00:18:01;100584.03;;;19.75;57.17
40940;BME280;26666;50.156;7.700;2022-08-25T00:23:02;100583.53;;;19.57;57.48
40940;BME280;26666;50.156;7.700;2022-08-25T00:28:08;100578.44;;;19.62;57.93
40940;BME280;26666;50.156;7.700;2022-08-25T00:33:10;100587.09;;;19.19;58.88
40940;BME280;26666;50.156;7.700;2022-08-25T00:38:12;100589.78;;;19.19;58.96
40940;BME280;26666;50.156;7.700;2022-08-25T00:43:13;100591.00;;;19.31;59.23
40940;BME280;26666;50.156;7.700;2022-08-25T00:48:15;100600.50;;;19.19;59.77
40940;BME280;26666;50.156;7.700;2022-08-25T00:53:16;100601.22;;;19.13;60.00
40940;BME280;26666;50.156;7.700;2022-08-25T00:58:21;100597.50;;;19.14;59.80
40940;BME280;26666;50.156;7.700;2022-08-25T01:03:26;100606.09;;;19.09;59.94
40940;BME280;26666;50.156;7.700;2022-08-25T01:08:33;100606.22;;;18.93;60.12
40940;BME280;26666;50.156;7.700;2022-08-25T01:13:40;100594.56;;;19.09;59.91
40940;BME280;26666;50.156;7.700;2022-08-25T01:18:47;100597.03;;;19.10;59.68
40940;BME280;26666;50.156;7.700;2022-08-25T01:23:50;100608.00;;;18.78;60.75
40940;BME280;26666;50.156;7.700;2022-08-25T01:28:52;100608.91;;;18.70;61.04
40940;BME280;26666;50.156;7.700;2022-08-25T01:33:55;100606.75;;;18.65;60.78
40940;BME280;26666;50.156;7.700;2022-08-25T01:38:57;100611.28;;;18.33;62.13
40940;BME280;26666;50.156;7.700;2022-08-25T01:43:59;100609.66;;;18.56;62.13
40940;BME280;26666;50.156;7.700;2022-08-25T01:54:07;100616.63;;;18.65;61.53
40940;BME280;26666;50.156;7.700;2022-08-25T01:59:08;100610.13;;;18.59;61.51
40940;BME280;26666;50.156;7.700;2022-08-25T02:04:10;100616.22;;;18.22;62.88
40940;BME280;26666;50.156;7.700;2022-08-25T02:09:14;100611.41;;;18.09;63.25
40940;BME280;26666;50.156;7.700;2022-08-25T02:14:16;100613.91;;;18.10;62.90
40940;BME280;26666;50.156;7.700;2022-08-25T02:19:19;100607.66;;;18.26;62.50
40940;BME280;26666;50.156;7.700;2022-08-25T02:24:21;100608.03;;;18.15;63.26
40940;BME280;26666;50.156;7.700;2022-08-25T02:29:23;100611.84;;;18.21;63.56
40940;BME280;26666;50.156;7.700;2022-08-25T02:34:25;100617.78;;;18.00;64.09
40940;BME280;26666;50.156;7.700;2022-08-25T02:39:26;100611.56;;;18.16;64.13
40940;BME280;26666;50.156;7.700;2022-08-25T02:44:28;100617.25;;;18.12;63.86
40940;BME280;26666;50.156;7.700;2022-08-25T02:49:30;100610.97;;;17.97;64.56
40940;BME280;26666;50.156;7.700;2022-08-25T02:54:31;100610.16;;;17.80;65.37
40940;BME280;26666;50.156;7.700;2022-08-25T02:59:33;100606.66;;;17.80;65.22
40940;BME280;26666;50.156;7.700;2022-08-25T03:04:34;100609.09;;;18.06;64.41
40940;BME280;26666;50.156;7.700;2022-08-25T03:09:36;100602.03;;;18.13;64.00
40940;BME280;26666;50.156;7.700;2022-08-25T03:14:39;100598.13;;;17.92;64.80
40940;BME280;26666;50.156;7.700;2022-08-25T03:19:41;100594.47;;;17.85;65.47
40940;BME280;26666;50.156;7.700;2022-08-25T03:24:42;100594.53;;;17.52;65.47
40940;BME280;26666;50.156;7.700;2022-08-25T03:29:46;100594.25;;;17.31;67.22
40940;BME280;26666;50.156;7.700;2022-08-25T03:34:47;100591.16;;;17.67;66.22
40940;BME280;26666;50.156;7.700;2022-08-25T03:39:49;100586.75;;;17.26;67.49
40940;BME280;26666;50.156;7.700;2022-08-25T03:44:51;100578.19;;;17.39;67.54
40940;BME280;26666;50.156;7.700;2022-08-25T03:49:52;100568.88;;;17.27;66.92
40940;BME280;26666;50.156;7.700;2022-08-25T03:54:54;100565.91;;;17.13;67.93
40940;BME280;26666;50.156;7.700;2022-08-25T03:59:55;100560.06;;;17.26;67.15
40940;BME280;26666;50.156;7.700;2022-08-25T04:04:57;100563.34;;;17.45;66.67
40940;BME280;26666;50.156;7.700;2022-08-25T04:09:58;100561.94;;;16.93;68.29
40940;BME280;26666;50.156;7.700;2022-08-25T04:15:00;100572.91;;;16.98;68.47
40940;BME280;26666;50.156;7.700;2022-08-25T04:20:03;100568.91;;;16.94;68.46
40940;BME280;26666;50.156;7.700;2022-08-25T04:25:05;100581.56;;;17.25;67.79
40940;BME280;26666;50.156;7.700;2022-08-25T04:30:07;100589.78;;;16.99;69.22
40940;BME280;26666;50.156;7.700;2022-08-25T04:35:09;100590.94;;;17.12;68.77
40940;BME280;26666;50.156;7.700;2022-08-25T04:40:11;100588.25;;;17.29;67.86
40940;BME280;26666;50.156;7.700;2022-08-25T04:45:12;100580.56;;;17.18;68.81
40940;BME280;26666;50.156;7.700;2022-08-25T04:50:14;100584.75;;;17.04;69.34
40940;BME280;26666;50.156;7.700;2022-08-25T04:55:15;100578.25;;;17.23;68.82
40940;BME280;26666;50.156;7.700;2022-08-25T05:00:17;100579.41;;;17.28;68.21
40940;BME280;26666;50.156;7.700;2022-08-25T05:05:19;100586.09;;;17.24;68.29
40940;BME280;26666;50.156;7.700;2022-08-25T05:10:20;100588.88;;;17.39;68.05
40940;BME280;26666;50.156;7.700;2022-08-25T05:15:22;100587.84;;;17.65;66.88
40940;BME280;26666;50.156;7.700;2022-08-25T05:20:25;100587.44;;;17.92;66.36
40940;BME280;26666;50.156;7.700;2022-08-25T05:25:27;100575.94;;;18.69;64.06
40940;BME280;26666;50.156;7.700;2022-08-25T05:30:28;100577.53;;;19.69;60.62
40940;BME280;26666;50.156;7.700;2022-08-25T05:35:30;100573.69;;;20.45;58.72
40940;BME280;26666;50.156;7.700;2022-08-25T05:40:32;100573.81;;;24.51;49.12
40940;BME280;26666;50.156;7.700;2022-08-25T05:45:36;100566.66;;;23.93;48.89
40940;BME280;26666;50.156;7.700;2022-08-25T05:50:38;100567.50;;;26.98;43.42
40940;BME280;26666;50.156;7.700;2022-08-25T05:55:43;100569.94;;;30.24;37.74
40940;BME280;26666;50.156;7.700;2022-08-25T06:00:45;100571.41;;;31.92;34.23
40940;BME280;26666;50.156;7.700;2022-08-25T06:05:47;100557.59;;;33.06;32.51
40940;BME280;26666;50.156;7.700;2022-08-25T06:10:52;100544.69;;;33.32;32.01
40940;BME280;26666;50.156;7.700;2022-08-25T06:15:58;100545.41;;;34.18;31.15
40940;BME280;26666;50.156;7.700;2022-08-25T06:21:07;100544.53;;;35.21;29.86
40940;BME280;26666;50.156;7.700;2022-08-25T06:26:11;100546.31;;;35.36;29.37
40940;BME280;26666;50.156;7.700;2022-08-25T06:31:22;100536.31;;;36.78;28.00
40940;BME280;26666;50.156;7.700;2022-08-25T06:36:23;100536.22;;;38.53;26.42
40940;BME280;26666;50.156;7.700;2022-08-25T06:41:25;100531.47;;;37.17;26.96
40940;BME280;26666;50.156;7.700;2022-08-25T06:46:37;100520.56;;;35.75;28.63
40940;BME280;26666;50.156;7.700;2022-08-25T06:51:39;100526.00;;;39.91;24.63
40940;BME280;26666;50.156;7.700;2022-08-25T06:56:41;100519.00;;;40.93;23.22
40940;BME280;26666;50.156;7.700;2022-08-25T07:01:43;100504.63;;;41.60;22.61
40940;BME280;26666;50.156;7.700;2022-08-25T07:06:45;100508.00;;;40.58;23.62
40940;BME280;26666;50.156;7.700;2022-08-25T07:11:47;100509.91;;;42.15;21.77
40940;BME280;26666;50.156;7.700;2022-08-25T07:16:48;100505.47;;;41.30;22.30
40940;BME280;26666;50.156;7.700;2022-08-25T07:21:51;100501.88;;;40.44;23.58
40940;BME280;26666;50.156;7.700;2022-08-25T07:26:53;100505.88;;;39.33;24.59
40940;BME280;26666;50.156;7.700;2022-08-25T07:31:55;100494.47;;;38.32;25.55
40940;BME280;26666;50.156;7.700;2022-08-25T07:36:57;100501.22;;;41.54;22.21
40940;BME280;26666;50.156;7.700;2022-08-25T07:41:59;100492.59;;;40.31;23.03
40940;BME280;26666;50.156;7.700;2022-08-25T07:47:01;100499.38;;;41.88;22.49
40940;BME280;26666;50.156;7.700;2022-08-25T07:52:03;100491.81;;;42.88;21.58
40940;BME280;26666;50.156;7.700;2022-08-25T07:57:07;100483.53;;;45.34;19.73
40940;BME280;26666;50.156;7.700;2022-08-25T08:02:11;100485.72;;;46.88;18.86
40940;BME280;26666;50.156;7.700;2022-08-25T08:07:23;100485.84;;;45.47;19.69
40940;BME280;26666;50.156;7.700;2022-08-25T08:12:42;100480.97;;;42.04;23.18
40940;BME280;26666;50.156;7.700;2022-08-25T08:17:44;100484.13;;;44.60;21.52
40940;BME280;26666;50.156;7.700;2022-08-25T08:22:48;100486.97;;;39.18;26.79
40940;BME280;26666;50.156;7.700;2022-08-25T08:27:50;100474.81;;;37.52;29.36
40940;BME280;26666;50.156;7.700;2022-08-25T08:32:55;100468.25;;;35.37;31.79
40940;BME280;26666;50.156;7.700;2022-08-25T08:38:13;100460.47;;;33.58;34.99
40940;BME280;26666;50.156;7.700;2022-08-25T08:43:22;100458.16;;;30.51;40.21
40940;BME280;26666;50.156;7.700;2022-08-25T08:48:39;100450.56;;;31.59;39.66
40940;BME280;26666;50.156;7.700;2022-08-25T08:58:49;100440.78;;;31.05;40.07
40940;BME280;26666;50.156;7.700;2022-08-25T09:04:04;100433.66;;;30.99;40.43
40940;BME280;26666;50.156;7.700;2022-08-25T09:09:12;100425.63;;;31.40;40.22
40940;BME280;26666;50.156;7.700;2022-08-25T09:36:01;100370.16;;;30.61;41.29
40940;BME280;26666;50.156;7.700;2022-08-25T09:41:07;100379.88;;;31.88;39.51
40940;BME280;26666;50.156;7.700;2022-08-25T09:46:14;100372.50;;;32.25;38.57
40940;BME280;26666;50.156;7.700;2022-08-25T09:51:29;100367.88;;;32.15;38.96
40940;BME280;26666;50.156;7.700;2022-08-25T10:01:58;100348.28;;;30.45;41.12
40940;BME280;26666;50.156;7.700;2022-08-25T10:07:02;100353.91;;;31.75;39.29
40940;BME280;26666;50.156;7.700;2022-08-25T10:12:17;100345.19;;;31.83;39.16
40940;BME280;26666;50.156;7.700;2022-08-25T10:17:27;100329.31;;;31.80;37.46
40940;BME280;26666;50.156;7.700;2022-08-25T10:22:30;100339.44;;;31.95;37.55
40940;BME280;26666;50.156;7.700;2022-08-25T10:27:38;100327.44;;;32.01;37.97
40940;BME280;26666;50.156;7.700;2022-08-25T10:38:13;100316.22;;;32.08;37.47
40940;BME280;26666;50.156;7.700;2022-08-25T10:44:23;100304.47;;;32.13;36.97
40940;BME280;26666;50.156;7.700;2022-08-25T10:49:17;100308.31;;;32.01;37.73
40940;BME280;26666;50.156;7.700;2022-08-25T10:55:00;100304.47;;;31.82;37.75
40940;BME280;26666;50.156;7.700;2022-08-25T11:00:13;100286.41;;;31.45;38.71
40940;BME280;26666;50.156;7.700;2022-08-25T11:05:30;100294.84;;;31.18;38.59
40940;BME280;26666;50.156;7.700;2022-08-25T11:10:46;100294.50;;;30.99;38.40
40940;BME280;26666;50.156;7.700;2022-08-25T11:16:01;100288.25;;;31.09;38.36
40940;BME280;26666;50.156;7.700;2022-08-25T11:21:22;100277.09;;;31.15;38.08
40940;BME280;26666;50.156;7.700;2022-08-25T11:26:29;100293.22;;;31.37;38.05
40940;BME280;26666;50.156;7.700;2022-08-25T11:31:41;100279.88;;;31.46;37.97
40940;BME280;26666;50.156;7.700;2022-08-25T11:36:57;100275.16;;;31.11;38.08
40940;BME280;26666;50.156;7.700;2022-08-25T11:57:35;100252.53;;;31.00;37.99
40940;BME280;26666;50.156;7.700;2022-08-25T12:02:44;100251.44;;;31.06;38.33
40940;BME280;26666;50.156;7.700;2022-08-25T12:12:56;100254.06;;;30.75;38.37
40940;BME280;26666;50.156;7.700;2022-08-25T12:23:29;100241.72;;;30.57;39.47
40940;BME280;26666;50.156;7.700;2022-08-25T12:39:20;100230.31;;;30.18;39.54
40940;BME280;26666;50.156;7.700;2022-08-25T12:50:46;100227.59;;;30.18;39.59
40940;BME280;26666;50.156;7.700;2022-08-25T12:55:52;100218.63;;;30.17;39.58
40940;BME280;26666;50.156;7.700;2022-08-25T13:17:24;100194.84;;;30.02;38.92
40940;BME280;26666;50.156;7.700;2022-08-25T13:22:26;100195.13;;;30.01;38.82
40940;BME280;26666;50.156;7.700;2022-08-25T13:27:30;100185.69;;;29.76;39.50
40940;BME280;26666;50.156;7.700;2022-08-25T13:32:35;100186.66;;;29.97;38.17
40940;BME280;26666;50.156;7.700;2022-08-25T13:37:37;100166.78;;;29.97;38.25
40940;BME280;26666;50.156;7.700;2022-08-25T13:42:40;100168.47;;;29.65;38.49
40940;BME280;26666;50.156;7.700;2022-08-25T13:47:45;100162.56;;;29.79;38.45
40940;BME280;26666;50.156;7.700;2022-08-25T13:53:00;100165.38;;;29.94;38.83
40940;BME280;26666;50.156;7.700;2022-08-25T13:58:04;100159.66;;;29.96;38.65
40940;BME280;26666;50.156;7.700;2022-08-25T14:03:38;100155.03;;;29.96;39.28
40940;BME280;26666;50.156;7.700;2022-08-25T14:09:11;100151.75;;;29.89;39.59
40940;BME280;26666;50.156;7.700;2022-08-25T14:14:30;100149.28;;;29.93;39.09
40940;BME280;26666;50.156;7.700;2022-08-25T14:19:36;100153.41;;;30.00;39.35
40940;BME280;26666;50.156;7.700;2022-08-25T14:24:48;100145.97;;;29.80;39.30
40940;BME280;26666;50.156;7.700;2022-08-25T14:29:51;100144.34;;;29.79;39.51
40940;BME280;26666;50.156;7.700;2022-08-25T14:34:53;100143.25;;;29.80;38.83
40940;BME280;26666;50.156;7.700;2022-08-25T14:39:54;100127.09;;;29.68;39.26
40940;BME280;26666;50.156;7.700;2022-08-25T14:44:56;100125.16;;;29.64;40.38
40940;BME280;26666;50.156;7.700;2022-08-25T14:50:00;100118.91;;;29.68;38.87
40940;BME280;26666;50.156;7.700;2022-08-25T14:55:02;100122.44;;;29.69;39.30
40940;BME280;26666;50.156;7.700;2022-08-25T15:00:05;100124.31;;;29.58;39.63
40940;BME280;26666;50.156;7.700;2022-08-25T15:05:09;100126.50;;;29.61;39.66
40940;BME280;26666;50.156;7.700;2022-08-25T15:10:11;100114.63;;;29.73;39.52
40940;BME280;26666;50.156;7.700;2022-08-25T15:15:14;100106.44;;;29.73;40.00
40940;BME280;26666;50.156;7.700;2022-08-25T15:20:16;100102.53;;;29.63;39.93
40940;BME280;26666;50.156;7.700;2022-08-25T15:25:17;100095.19;;;29.59;39.75
40940;BME280;26666;50.156;7.700;2022-08-25T15:30:19;100098.59;;;29.39;40.48
40940;BME280;26666;50.156;7.700;2022-08-25T15:35:20;100098.31;;;29.35;40.12
40940;BME280;26666;50.156;7.700;2022-08-25T15:40:29;100097.50;;;29.35;40.84
40940;BME280;26666;50.156;7.700;2022-08-25T15:45:31;100093.72;;;29.08;42.00
40940;BME280;26666;50.156;7.700;2022-08-25T15:50:33;100100.78;;;29.04;41.02
40940;BME280;26666;50.156;7.700;2022-08-25T15:55:37;100096.00;;;29.17;40.89
40940;BME280;26666;50.156;7.700;2022-08-25T16:00:39;100100.34;;;28.85;43.27
40940;BME280;26666;50.156;7.700;2022-08-25T16:05:42;100089.50;;;28.90;41.50
40940;BME280;26666;50.156;7.700;2022-08-25T16:10:48;100092.88;;;29.03;41.00
40940;BME280;26666;50.156;7.700;2022-08-25T16:15:51;100094.88;;;28.80;41.82
40940;BME280;26666;50.156;7.700;2022-08-25T16:20:54;100086.97;;;28.79;41.57
40940;BME280;26666;50.156;7.700;2022-08-25T16:25:56;100083.03;;;28.64;42.33
40940;BME280;26666;50.156;7.700;2022-08-25T16:30:58;100084.66;;;28.65;42.30
40940;BME280;26666;50.156;7.700;2022-08-25T16:36:09;100083.47;;;28.51;43.07
40940;BME280;26666;50.156;7.700;2022-08-25T16:41:13;100082.50;;;28.40;42.82
40940;BME280;26666;50.156;7.700;2022-08-25T16:46:17;100080.31;;;28.37;42.94
40940;BME280;26666;50.156;7.700;2022-08-25T16:51:20;100076.19;;;28.57;42.75
40940;BME280;26666;50.156;7.700;2022-08-25T16:56:32;100094.00;;;28.47;41.98
40940;BME280;26666;50.156;7.700;2022-08-25T17:01:34;100096.31;;;28.39;42.88
40940;BME280;26666;50.156;7.700;2022-08-25T17:06:40;100094.22;;;28.19;44.42
40940;BME280;26666;50.156;7.700;2022-08-25T17:11:51;100093.91;;;28.15;44.13
40940;BME280;26666;50.156;7.700;2022-08-25T17:16:54;100090.13;;;27.94;44.25
40940;BME280;26666;50.156;7.700;2022-08-25T17:21:56;100088.31;;;28.27;42.60
40940;BME280;26666;50.156;7.700;2022-08-25T17:26:58;100093.44;;;28.23;42.21
40940;BME280;26666;50.156;7.700;2022-08-25T17:32:02;100090.88;;;28.11;42.83
40940;BME280;26666;50.156;7.700;2022-08-25T17:37:04;100088.91;;;28.07;42.73
40940;BME280;26666;50.156;7.700;2022-08-25T17:42:05;100097.78;;;27.80;44.21
40940;BME280;26666;50.156;7.700;2022-08-25T17:47:07;100102.50;;;27.68;44.75
40940;BME280;26666;50.156;7.700;2022-08-25T17:52:09;100100.91;;;27.50;45.06
40940;BME280;26666;50.156;7.700;2022-08-25T17:57:11;100093.88;;;27.32;46.03
40940;BME280;26666;50.156;7.700;2022-08-25T18:02:13;100093.91;;;27.20;46.09
40940;BME280;26666;50.156;7.700;2022-08-25T18:07:15;100107.25;;;27.05;46.49
40940;BME280;26666;50.156;7.700;2022-08-25T18:12:17;100094.75;;;26.87;46.57
40940;BME280;26666;50.156;7.700;2022-08-25T18:17:20;100096.38;;;26.71;46.65
40940;BME280;26666;50.156;7.700;2022-08-25T18:22:23;100107.56;;;26.05;65.29
40940;BME280;26666;50.156;7.700;2022-08-25T18:27:25;100110.66;;;25.26;86.50
40940;BME280;26666;50.156;7.700;2022-08-25T18:32:27;100110.72;;;25.08;91.59
40940;BME280;26666;50.156;7.700;2022-08-25T18:37:29;100108.16;;;25.13;73.42
40940;BME280;26666;50.156;7.700;2022-08-25T18:42:31;100122.72;;;25.12;72.13
40940;BME280;26666;50.156;7.700;2022-08-25T18:47:33;100107.91;;;25.03;61.74
40940;BME280;26666;50.156;7.700;2022-08-25T18:52:34;100117.84;;;24.90;63.90
40940;BME280;26666;50.156;7.700;2022-08-25T18:57:36;100112.16;;;24.68;65.51
40940;BME280;26666;50.156;7.700;2022-08-25T19:02:44;100125.91;;;24.67;64.69
40940;BME280;26666;50.156;7.700;2022-08-25T19:07:48;100131.03;;;24.56;62.57
40940;BME280;26666;50.156;7.700;2022-08-25T19:12:52;100129.63;;;24.54;58.29
40940;BME280;26666;50.156;7.700;2022-08-25T19:17:57;100135.25;;;24.52;60.80
40940;BME280;26666;50.156;7.700;2022-08-25T19:22:59;100136.75;;;24.30;60.55
40940;BME280;26666;50.156;7.700;2022-08-25T19:28:04;100135.66;;;24.19;58.58
40940;BME280;26666;50.156;7.700;2022-08-25T19:33:06;100142.03;;;23.88;62.57
40940;BME280;26666;50.156;7.700;2022-08-25T19:38:16;100135.72;;;23.94;63.42
40940;BME280;26666;50.156;7.700;2022-08-25T19:43:35;100135.84;;;23.99;58.70
40940;BME280;26666;50.156;7.700;2022-08-25T19:48:39;100143.59;;;23.95;58.59
40940;BME280;26666;50.156;7.700;2022-08-25T19:53:41;100150.06;;;23.69;59.38
40940;BME280;26666;50.156;7.700;2022-08-25T19:58:43;100147.81;;;23.66;59.95
40940;BME280;26666;50.156;7.700;2022-08-25T20:03:44;100154.06;;;23.60;60.77
40940;BME280;26666;50.156;7.700;2022-08-25T20:08:46;100155.84;;;23.48;62.91
40940;BME280;26666;50.156;7.700;2022-08-25T20:13:59;100158.88;;;23.33;61.97
40940;BME280;26666;50.156;7.700;2022-08-25T20:19:04;100160.97;;;23.31;60.73
40940;BME280;26666;50.156;7.700;2022-08-25T20:24:09;100167.31;;;23.18;63.13
40940;BME280;26666;50.156;7.700;2022-08-25T20:29:11;100172.31;;;23.14;61.93
40940;BME280;26666;50.156;7.700;2022-08-25T20:34:13;100172.31;;;23.08;60.32
40940;BME280;26666;50.156;7.700;2022-08-25T20:39:15;100171.16;;;22.97;61.52
40940;BME280;26666;50.156;7.700;2022-08-25T20:44:17;100173.50;;;22.80;61.39
40940;BME280;26666;50.156;7.700;2022-08-25T20:49:23;100177.19;;;22.92;60.46
40940;BME280;26666;50.156;7.700;2022-08-25T20:54:26;100176.88;;;22.75;63.59
40940;BME280;26666;50.156;7.700;2022-08-25T20:59:27;100174.03;;;22.63;61.01
40940;BME280;26666;50.156;7.700;2022-08-25T21:04:29;100172.22;;;22.51;61.87
40940;BME280;26666;50.156;7.700;2022-08-25T21:09:31;100178.50;;;22.38;62.07
40940;BME280;26666;50.156;7.700;2022-08-25T21:14:36;100174.75;;;22.39;61.22
40940;BME280;26666;50.156;7.700;2022-08-25T21:19:38;100177.88;;;22.36;62.51
40940;BME280;26666;50.156;7.700;2022-08-25T21:24:42;100179.31;;;22.32;62.19
40940;BME280;26666;50.156;7.700;2022-08-25T21:29:45;100172.91;;;22.33;62.63
40940;BME280;26666;50.156;7.700;2022-08-25T21:34:55;100180.59;;;22.22;62.58
40940;BME280;26666;50.156;7.700;2022-08-25T21:39:58;100182.50;;;22.02;63.29
40940;BME280;26666;50.156;7.700;2022-08-25T21:45:00;100184.75;;;22.12;64.40
40940;BME280;26666;50.156;7.700;2022-08-25T21:50:03;100184.00;;;21.78;63.70
40940;BME280;26666;50.156;7.700;2022-08-25T21:55:05;100192.06;;;21.78;63.55
40940;BME280;26666;50.156;7.700;2022-08-25T22:00:10;100192.06;;;21.78;63.72
40940;BME280;26666;50.156;7.700;2022-08-25T22:05:12;100204.47;;;21.72;65.70
40940;BME280;26666;50.156;7.700;2022-08-25T22:10:15;100205.53;;;21.64;64.47
40940;BME280;26666;50.156;7.700;2022-08-25T22:15:18;100202.19;;;21.56;64.95
40940;BME280;26666;50.156;7.700;2022-08-25T22:20:20;100197.47;;;21.58;65.18
40940;BME280;26666;50.156;7.700;2022-08-25T22:25:21;100198.06;;;21.66;65.63
40940;BME280;26666;50.156;7.700;2022-08-25T22:30:25;100201.16;;;21.43;66.34
40940;BME280;26666;50.156;7.700;2022-08-25T22:35:31;100200.72;;;21.20;65.78
40940;BME280;26666;50.156;7.700;2022-08-25T22:40:35;100195.56;;;21.25;66.41
40940;BME280;26666;50.156;7.700;2022-08-25T22:45:37;100202.38;;;21.41;66.74
40940;BME280;26666;50.156;7.700;2022-08-25T22:50:38;100200.72;;;21.13;66.96
40940;BME280;26666;50.156;7.700;2022-08-25T22:55:42;100194.50;;;21.13;66.65
40940;BME280;26666;50.156;7.700;2022-08-25T23:00:44;100189.75;;;21.01;67.24
40940;BME280;26666;50.156;7.700;2022-08-25T23:05:46;100187.25;;;21.00;68.32
40940;BME280;26666;50.156;7.700;2022-08-25T23:10:50;100190.09;;;20.78;68.23
40940;BME280;26666;50.156;7.700;2022-08-25T23:15:52;100183.66;;;20.73;68.32
40940;BME280;26666;50.156;7.700;2022-08-25T23:20:54;100185.09;;;20.68;68.65
40940;BME280;26666;50.156;7.700;2022-08-25T23:25:56;100194.28;;;20.46;69.65
40940;BME280;26666;50.156;7.700;2022-08-25T23:30:58;100192.44;;;20.53;70.68
40940;BME280;26666;50.156;7.700;2022-08-25T23:36:03;100190.34;;;20.48;69.81
40940;BME280;26666;50.156;7.700;2022-08-25T23:41:05;100200.19;;;20.35;71.03
40940;BME280;26666;50.156;7.700;2022-08-25T23:46:07;100192.06;;;20.21;70.77
40940;BME280;26666;50.156;7.700;2022-08-25T23:51:09;100185.34;;;20.32;71.44
40940;BME280;26666;50.156;7.700;2022-08-25T23:56:11;100192.31;;;20.26;71.55
